Time;durP1;ratioP1;P1;durP2;ratioP2;P2;SDS_P1;SDS_P2;PMS_P1;PMS_P2;Temp;Humidity;BMP_temperature;BMP_pressure;BME280_temperature;BME280_humidity;BME280_pressure;Samples;Min_cycle;Max_cycle;Signal;HPM_P1;HPM_P2
2023/08/02 19:12:56;;;;;;;8.30;1.40;;;19.40;99.90;;;;;;5123705;27;20133;-58
2023/08/02 19:15:28;;;;;;;3.60;0.73;;;18.70;99.90;;;;;;5124002;27;20061;-57
2023/08/02 19:17:54;;;;;;;5.80;1.30;;;18.60;99.90;;;;;;5077509;28;20060;-58
2023/08/02 19:20:26;;;;;;;7.07;2.50;;;18.50;99.90;;;;;;5100482;28;20067;-58
2023/08/02 19:22:52;;;;;;;2.72;1.30;;;18.40;99.90;;;;;;5081181;28;20146;-58
2023/08/02 19:25:18;;;;;;;5.05;1.48;;;18.30;99.90;;;;;;5092036;28;20108;-57
2023/08/02 19:27:45;;;;;;;5.97;2.03;;;18.20;99.90;;;;;;5089650;28;20433;-60
2023/08/02 19:30:17;;;;;;;7.15;1.80;;;18.10;99.90;;;;;;5098282;28;20592;-59
2023/08/02 19:32:43;;;;;;;6.25;2.00;;;18.00;99.90;;;;;;5079762;28;20055;-58
2023/08/02 19:35:10;;;;;;;7.35;1.85;;;17.90;99.90;;;;;;5101204;27;20582;-58
2023/08/02 19:37:37;;;;;;;12.88;2.78;;;17.90;99.90;;;;;;5088333;28;20420;-58
2023/08/02 19:40:09;;;;;;;6.15;1.45;;;17.80;99.90;;;;;;5057243;28;20130;-59
2023/08/02 19:42:40;;;;;;;10.15;2.38;;;17.80;99.90;;;;;;5093214;28;20115;-60
2023/08/02 19:45:07;;;;;;;4.60;1.30;;;17.70;99.90;;;;;;5074630;28;20090;-58
2023/08/02 19:47:33;;;;;;;9.07;2.17;;;17.70;99.90;;;;;;5107824;28;20051;-58
2023/08/02 19:50:02;;;;;;;8.23;1.60;;;17.60;99.90;;;;;;5115631;28;20096;-57
2023/08/02 19:52:29;;;;;;;9.18;1.85;;;17.60;99.90;;;;;;5092385;27;20056;-57
2023/08/02 19:54:55;;;;;;;7.18;1.45;;;17.50;99.90;;;;;;5090789;27;20053;-57
2023/08/02 19:57:24;;;;;;;3.20;1.67;;;17.50;99.90;;;;;;5122793;27;20147;-57
2023/08/02 19:59:50;;;;;;;4.40;1.88;;;17.40;99.90;;;;;;5096878;27;20052;-57
2023/08/02 20:04:45;;;;;;;6.65;1.67;;;17.30;99.90;;;;;;5110991;27;20065;-57
2023/08/02 20:07:11;;;;;;;10.48;1.77;;;17.30;99.90;;;;;;5105633;28;21294;-57
2023/08/02 20:09:42;;;;;;;11.48;2.40;;;17.10;99.90;;;;;;5121784;27;20510;-56
2023/08/02 20:12:09;;;;;;;7.78;2.30;;;17.10;99.90;;;;;;5109397;27;20060;-57
2023/08/02 20:14:35;;;;;;;6.35;2.40;;;17.00;99.90;;;;;;5120693;27;20074;-57
2023/08/02 20:17:01;;;;;;;4.03;1.30;;;17.00;99.90;;;;;;5112819;27;20106;-57
2023/08/02 20:19:27;;;;;;;5.65;1.63;;;16.80;99.90;;;;;;5124695;27;20059;-57
2023/08/02 20:21:53;;;;;;;5.95;1.70;;;16.80;99.90;;;;;;5121559;27;20754;-57
2023/08/02 20:24:23;;;;;;;8.02;2.20;;;16.80;99.90;;;;;;5094641;28;20059;-58
2023/08/02 20:26:50;;;;;;;5.68;1.65;;;16.80;99.90;;;;;;5080786;28;20178;-61
2023/08/02 20:29:23;;;;;;;8.07;1.92;;;16.70;99.90;;;;;;5083536;27;20054;-59
2023/08/02 20:31:50;;;;;;;7.72;1.52;;;16.70;99.90;;;;;;5068747;28;20112;-58
2023/08/02 20:34:18;;;;;;;6.63;1.58;;;16.70;99.90;;;;;;5072127;28;20448;-58
2023/08/02 20:36:44;;;;;;;7.22;2.15;;;16.70;99.90;;;;;;5085580;28;20185;-58
2023/08/02 20:39:12;;;;;;;6.38;2.03;;;16.70;99.90;;;;;;5067224;28;20059;-58
2023/08/02 20:41:41;;;;;;;7.05;2.20;;;16.70;99.90;;;;;;5095998;28;20094;-57
2023/08/02 20:44:16;;;;;;;8.00;1.38;;;16.70;99.90;;;;;;5103048;28;20519;-57
2023/08/02 20:46:42;;;;;;;13.20;2.53;;;16.80;99.90;;;;;;5071745;28;20207;-57
2023/08/02 20:49:12;;;;;;;6.18;2.03;;;16.70;99.90;;;;;;5082820;28;20536;-61
2023/08/02 20:51:43;;;;;;;5.55;1.80;;;16.70;99.90;;;;;;5090992;27;20060;-60
2023/08/02 20:54:09;;;;;;;4.65;1.35;;;16.70;99.90;;;;;;5095112;27;20190;-58
2023/08/02 20:56:35;;;;;;;4.60;1.25;;;16.70;99.90;;;;;;5073299;28;20056;-57
2023/08/02 20:59:07;;;;;;;7.70;2.05;;;16.70;99.90;;;;;;5071194;28;20058;-57
2023/08/02 21:01:33;;;;;;;6.47;1.42;;;16.70;99.90;;;;;;5070040;28;20052;-56
2023/08/02 21:04:02;;;;;;;11.30;2.47;;;16.70;99.90;;;;;;5059328;28;20084;-57
2023/08/02 21:06:28;;;;;;;3.58;1.60;;;16.70;99.90;;;;;;5074096;28;20052;-62
2023/08/02 21:08:54;;;;;;;5.90;1.30;;;16.70;99.90;;;;;;5087150;28;20066;-56
2023/08/02 21:11:23;;;;;;;5.68;1.63;;;16.70;99.90;;;;;;5096045;28;20055;-61
2023/08/02 21:13:50;;;;;;;6.53;2.10;;;16.70;99.90;;;;;;5075939;28;20086;-63
2023/08/02 21:16:16;;;;;;;6.40;1.30;;;16.70;99.90;;;;;;5107912;27;20052;-60
2023/08/02 21:18:46;;;;;;;5.82;2.22;;;16.70;99.90;;;;;;5065022;28;20425;-57
2023/08/02 21:21:15;;;;;;;13.93;2.80;;;16.70;99.90;;;;;;5101301;28;20092;-61
2023/08/02 21:23:42;;;;;;;5.22;1.27;;;16.70;99.90;;;;;;5107989;27;20062;-61
2023/08/02 21:26:14;;;;;;;7.18;1.77;;;16.70;99.90;;;;;;5099130;28;20513;-60
2023/08/02 21:28:40;;;;;;;3.58;1.33;;;16.70;99.90;;;;;;5068925;28;20067;-57
2023/08/02 21:31:12;;;;;;;5.68;1.90;;;16.70;99.90;;;;;;5104187;27;20056;-58
2023/08/02 21:33:38;;;;;;;3.05;1.05;;;16.60;99.90;;;;;;5066831;28;20058;-57
2023/08/02 21:36:04;;;;;;;7.03;1.38;;;16.70;99.90;;;;;;5093410;28;20138;-57
2023/08/02 21:38:32;;;;;;;4.78;1.60;;;16.70;99.90;;;;;;5097128;28;20155;-57
2023/08/02 21:41:05;;;;;;;5.63;1.88;;;16.60;99.90;;;;;;5091344;28;20063;-58
2023/08/02 21:43:32;;;;;;;5.63;1.60;;;16.70;99.90;;;;;;5091242;28;20085;-57
2023/08/02 21:46:04;;;;;;;8.20;1.80;;;16.60;99.90;;;;;;5093055;28;20146;-57
2023/08/02 21:48:31;;;;;;;6.85;2.10;;;16.60;99.90;;;;;;5052901;28;20084;-56
2023/08/02 21:51:00;;;;;;;3.47;2.05;;;16.60;99.90;;;;;;5100973;28;20536;-57
2023/08/02 21:53:26;;;;;;;9.73;2.67;;;16.50;99.90;;;;;;5104880;27;20051;-56
2023/08/02 21:55:53;;;;;;;4.82;1.73;;;16.50;99.90;;;;;;5087223;28;20051;-57
2023/08/02 21:58:31;;;;;;;6.78;1.83;;;16.40;99.90;;;;;;5088534;28;20067;-57
2023/08/02 22:01:00;;;;;;;4.32;2.00;;;16.40;99.90;;;;;;5093560;27;20227;-57
2023/08/02 22:03:28;;;;;;;7.13;1.85;;;16.40;99.90;;;;;;5075148;28;20062;-57
2023/08/02 22:06:04;;;;;;;5.70;1.38;;;16.40;99.90;;;;;;5084223;28;20121;-58
2023/08/02 22:08:35;;;;;;;3.13;1.10;;;16.30;99.90;;;;;;5094747;28;20649;-56
2023/08/02 22:11:03;;;;;;;5.82;1.65;;;16.30;99.90;;;;;;5097306;28;20553;-57
2023/08/02 22:13:29;;;;;;;6.35;1.77;;;16.30;99.90;;;;;;5095800;28;20515;-57
2023/08/02 22:15:55;;;;;;;4.30;1.75;;;16.20;99.90;;;;;;5099689;28;20047;-62
2023/08/02 22:18:24;;;;;;;4.20;1.20;;;16.30;99.90;;;;;;5061977;28;20083;-58
2023/08/02 22:20:50;;;;;;;4.85;0.80;;;16.30;99.90;;;;;;5097830;28;20043;-57
2023/08/02 22:23:15;;;;;;;3.80;1.33;;;16.30;99.90;;;;;;5082624;28;20501;-60
2023/08/02 22:25:41;;;;;;;4.50;1.63;;;16.30;99.90;;;;;;5097988;28;20087;-60
2023/08/02 22:28:07;;;;;;;3.42;1.15;;;16.30;99.90;;;;;;5101227;28;20059;-58
2023/08/02 22:30:33;;;;;;;4.10;1.42;;;16.30;99.90;;;;;;5079542;28;20057;-58
2023/08/02 22:32:59;;;;;;;2.75;1.05;;;16.30;99.90;;;;;;5080527;28;20499;-62
2023/08/02 22:35:25;;;;;;;2.38;0.90;;;16.30;99.90;;;;;;5099314;28;20054;-55
2023/08/02 22:37:50;;;;;;;2.97;1.05;;;16.30;99.90;;;;;;5098353;28;20051;-57
2023/08/02 22:40:16;;;;;;;3.40;1.10;;;16.30;99.90;;;;;;5082734;28;20795;-60
2023/08/02 22:42:42;;;;;;;3.45;0.93;;;16.30;99.90;;;;;;5099263;28;20166;-57
2023/08/02 22:45:08;;;;;;;3.30;1.23;;;16.30;99.90;;;;;;5083417;28;20048;-57
2023/08/02 22:47:34;;;;;;;4.70;1.20;;;16.30;99.90;;;;;;5099562;28;20481;-57
2023/08/02 22:49:59;;;;;;;4.75;1.15;;;16.30;99.90;;;;;;5101999;28;20077;-62
2023/08/02 22:52:25;;;;;;;5.97;2.25;;;16.30;99.90;;;;;;5100969;28;20067;-60
2023/08/02 22:54:54;;;;;;;2.03;0.85;;;16.30;99.90;;;;;;5083480;28;20061;-60
2023/08/02 22:57:24;;;;;;;4.28;1.30;;;16.20;99.90;;;;;;5082475;28;20067;-59
2023/08/02 22:59:50;;;;;;;1.88;0.65;;;16.20;99.90;;;;;;5087504;28;20139;-58
2023/08/02 23:02:15;;;;;;;2.13;0.80;;;16.10;99.90;;;;;;5081622;28;20055;-57
2023/08/02 23:04:41;;;;;;;3.15;1.45;;;16.10;99.90;;;;;;5078486;28;20121;-62
2023/08/02 23:09:45;;;;;;;4.63;1.23;;;16.10;99.90;;;;;;5078650;28;20543;-63
2023/08/02 23:12:15;;;;;;;2.72;1.27;;;16.10;99.90;;;;;;5089881;28;20060;-58
2023/08/02 23:14:41;;;;;;;3.28;1.00;;;16.00;99.90;;;;;;5078726;28;20063;-60
2023/08/02 23:17:09;;;;;;;2.45;0.95;;;16.00;99.90;;;;;;5081105;28;20056;-58
2023/08/02 23:19:35;;;;;;;3.45;1.48;;;16.00;99.90;;;;;;5076968;28;20116;-57
2023/08/02 23:22:09;;;;;;;2.42;0.90;;;16.00;99.90;;;;;;5080965;28;20409;-57
2023/08/02 23:24:35;;;;;;;4.22;0.93;;;16.00;99.90;;;;;;5078387;28;20048;-57
2023/08/02 23:27:06;;;;;;;3.28;1.20;;;16.00;99.90;;;;;;5081504;28;20048;-57
2023/08/02 23:29:31;;;;;;;2.60;1.13;;;16.00;99.90;;;;;;5036678;28;1139554;-57
2023/08/02 23:31:57;;;;;;;4.70;0.90;;;15.90;99.90;;;;;;5081302;28;20337;-59
2023/08/02 23:34:23;;;;;;;5.30;1.05;;;16.00;99.90;;;;;;5049975;28;20415;-60
2023/08/02 23:36:48;;;;;;;5.20;1.58;;;15.90;99.90;;;;;;5060990;28;20064;-58
2023/08/02 23:39:14;;;;;;;3.03;1.10;;;15.90;99.90;;;;;;5100073;28;20048;-60
2023/08/02 23:41:39;;;;;;;2.92;0.70;;;15.90;99.90;;;;;;5067968;28;20405;-60
2023/08/02 23:44:05;;;;;;;3.67;1.40;;;15.90;99.90;;;;;;5076449;28;20201;-59
2023/08/02 23:46:33;;;;;;;1.95;1.25;;;15.90;99.90;;;;;;5047309;28;20063;-59
2023/08/02 23:48:59;;;;;;;2.65;1.10;;;15.90;99.90;;;;;;5063006;28;20063;-60
2023/08/02 23:51:25;;;;;;;4.28;1.50;;;16.00;99.90;;;;;;5062751;28;20092;-62
2023/08/02 23:53:50;;;;;;;8.60;2.13;;;16.00;99.90;;;;;;5060239;28;20037;-57
2023/08/02 23:56:16;;;;;;;5.38;1.58;;;16.00;99.90;;;;;;5066493;28;20060;-57
2023/08/02 23:58:42;;;;;;;2.42;0.75;;;16.00;99.90;;;;;;5060242;28;20052;-57
